createdAt,value
2022-10-17T00:02:11.633Z,11.50
2022-10-17T00:04:38.514Z,11.30
2022-10-17T00:07:05.386Z,11.30
2022-10-17T00:09:32.557Z,11.40
2022-10-17T00:11:59.458Z,11.20
2022-10-17T00:14:26.323Z,11.10
2022-10-17T00:16:53.367Z,11.10
2022-10-17T00:19:20.302Z,11.00
2022-10-17T00:21:49.000Z,11.00
2022-10-17T00:24:15.896Z,11.00
2022-10-17T00:26:42.743Z,11.00
2022-10-17T00:29:09.645Z,10.90
2022-10-17T00:31:36.572Z,10.80
2022-10-17T00:34:03.458Z,11.00
2022-10-17T00:36:30.343Z,10.80
2022-10-17T00:38:57.922Z,10.80
2022-10-17T00:41:29.219Z,10.90
2022-10-17T00:44:03.296Z,10.80
2022-10-17T00:46:36.238Z,10.70
2022-10-17T00:49:04.692Z,10.60
2022-10-17T00:51:34.175Z,10.60
2022-10-17T00:54:01.195Z,10.60
2022-10-17T00:56:28.319Z,11.00
2022-10-17T00:58:55.386Z,10.60
2022-10-17T01:01:22.387Z,10.70
2022-10-17T01:03:49.290Z,10.70
2022-10-17T01:06:16.237Z,10.70
2022-10-17T01:08:43.162Z,10.80
2022-10-17T01:11:16.139Z,10.80
2022-10-17T01:13:45.008Z,10.80
2022-10-17T01:16:13.391Z,10.70
2022-10-17T01:19:16.032Z,10.90
2022-10-17T01:21:56.127Z,10.60
2022-10-17T01:24:43.485Z,10.70
2022-10-17T01:27:29.013Z,10.60
2022-10-17T01:30:08.260Z,10.60
2022-10-17T01:32:54.842Z,10.60
2022-10-17T01:35:28.850Z,10.60
2022-10-17T01:38:04.844Z,10.50
2022-10-17T01:40:36.735Z,10.40
2022-10-17T01:43:05.226Z,10.40
2022-10-17T01:45:33.505Z,10.40
2022-10-17T01:48:01.354Z,10.40
2022-10-17T01:50:32.206Z,10.30
2022-10-17T01:53:09.394Z,10.30
2022-10-17T01:55:36.759Z,10.30
2022-10-17T01:58:05.707Z,10.30
2022-10-17T02:00:32.594Z,10.30
2022-10-17T02:03:00.759Z,10.20
2022-10-17T02:05:40.640Z,10.20
2022-10-17T02:08:07.524Z,10.20
2022-10-17T02:10:46.235Z,10.20
2022-10-17T02:13:21.277Z,10.00
2022-10-17T02:15:51.243Z,10.10
2022-10-17T02:18:33.633Z,10.00
2022-10-17T02:21:05.800Z,10.20
2022-10-17T02:23:36.685Z,10.10
2022-10-17T02:26:06.867Z,10.50
2022-10-17T02:28:33.811Z,10.10
2022-10-17T02:31:17.211Z,10.20
2022-10-17T02:33:44.106Z,10.30
2022-10-17T02:36:15.547Z,10.00
2022-10-17T02:38:42.630Z,10.10
2022-10-17T02:41:10.456Z,10.10
2022-10-17T02:43:37.277Z,10.00
2022-10-17T02:46:04.595Z,9.90
2022-10-17T02:48:35.142Z,10.10
2022-10-17T02:51:06.865Z,9.90
2022-10-17T02:53:36.910Z,9.90
2022-10-17T02:56:05.463Z,9.90
2022-10-17T02:58:32.597Z,9.90
2022-10-17T03:00:59.511Z,9.90
2022-10-17T03:03:27.426Z,10.20
2022-10-17T03:05:54.286Z,9.90
2022-10-17T03:08:21.300Z,9.90
2022-10-17T03:10:48.382Z,9.80
2022-10-17T03:13:15.491Z,9.90
2022-10-17T03:15:42.325Z,9.80
2022-10-17T03:18:09.343Z,9.70
2022-10-17T03:20:36.554Z,9.60
2022-10-17T03:23:03.440Z,9.50
2022-10-17T03:25:30.374Z,9.60
2022-10-17T03:28:00.731Z,9.80
2022-10-17T03:30:27.823Z,9.70
2022-10-17T03:32:54.706Z,9.70
2022-10-17T03:35:21.818Z,9.90
2022-10-17T03:37:48.666Z,9.60
2022-10-17T03:40:15.670Z,9.60
2022-10-17T03:42:42.525Z,9.50
2022-10-17T03:45:09.550Z,9.70
2022-10-17T03:47:36.428Z,9.60
2022-10-17T03:50:03.445Z,9.50
2022-10-17T03:52:54.951Z,9.60
2022-10-17T03:55:21.777Z,9.50
2022-10-17T03:57:48.622Z,9.60
2022-10-17T04:00:15.646Z,9.50
2022-10-17T04:02:42.545Z,9.40
2022-10-17T04:05:10.357Z,9.40
2022-10-17T04:07:37.906Z,9.40
2022-10-17T04:10:04.945Z,9.30
2022-10-17T04:12:32.133Z,9.30
2022-10-17T04:14:59.260Z,9.20
2022-10-17T04:17:26.102Z,9.40
2022-10-17T04:19:53.097Z,9.30
2022-10-17T04:22:19.967Z,9.30
2022-10-17T04:24:46.802Z,9.10
2022-10-17T04:27:13.768Z,9.30
2022-10-17T04:29:41.209Z,9.20
2022-10-17T04:32:08.049Z,9.40
2022-10-17T04:34:34.935Z,9.20
2022-10-17T04:37:01.913Z,9.20
2022-10-17T04:39:29.477Z,9.20
2022-10-17T04:41:56.839Z,9.30
2022-10-17T04:44:24.027Z,9.30
2022-10-17T04:46:50.961Z,9.20
2022-10-17T04:49:17.906Z,9.20
2022-10-17T04:51:44.670Z,9.20
2022-10-17T04:54:11.499Z,9.30
2022-10-17T04:56:38.357Z,9.20
2022-10-17T04:59:05.265Z,9.20
2022-10-17T05:01:39.592Z,9.50
2022-10-17T05:04:06.470Z,9.20
2022-10-17T05:06:34.032Z,9.40
2022-10-17T05:09:01.964Z,9.30
2022-10-17T05:11:29.354Z,9.30
2022-10-17T05:13:57.574Z,9.30
2022-10-17T05:16:25.045Z,9.30
2022-10-17T05:18:53.337Z,9.30
2022-10-17T05:21:20.313Z,9.20
2022-10-17T05:23:47.287Z,9.20
2022-10-17T05:26:14.217Z,9.60
2022-10-17T05:28:41.100Z,9.20
2022-10-17T05:31:08.378Z,9.40
2022-10-17T05:33:35.387Z,9.30
2022-10-17T05:36:02.361Z,9.10
2022-10-17T05:38:29.450Z,9.10
2022-10-17T05:40:59.806Z,9.20
2022-10-17T05:43:26.955Z,9.10
2022-10-17T05:45:53.946Z,9.10
2022-10-17T05:48:20.994Z,9.10
2022-10-17T05:50:47.971Z,9.10
2022-10-17T05:53:15.149Z,9.00
2022-10-17T05:55:42.099Z,9.00
2022-10-17T05:58:11.751Z,8.30
2022-10-17T06:00:47.599Z,9.30
2022-10-17T06:03:14.509Z,9.20
2022-10-17T06:05:41.567Z,9.10
2022-10-17T06:08:08.459Z,9.10
2022-10-17T06:10:35.319Z,9.10
2022-10-17T06:16:01.251Z,9.10
2022-10-17T06:18:28.118Z,10.30
2022-10-17T06:21:13.208Z,9.20
2022-10-17T06:23:58.735Z,8.80
2022-10-17T06:26:28.137Z,9.70
2022-10-17T06:28:55.236Z,10.30
2022-10-17T06:31:22.041Z,9.30
2022-10-17T06:33:48.943Z,9.50
2022-10-17T06:36:16.316Z,9.40
2022-10-17T06:38:43.230Z,9.50
2022-10-17T06:41:14.515Z,9.50
2022-10-17T06:43:43.371Z,9.50
2022-10-17T06:46:10.295Z,9.80
2022-10-17T06:48:37.270Z,9.70
2022-10-17T06:51:04.732Z,9.80
2022-10-17T06:53:34.089Z,9.90
2022-10-17T06:56:04.920Z,9.90
2022-10-17T06:58:32.558Z,9.90
2022-10-17T07:01:03.410Z,10.00
2022-10-17T07:03:30.506Z,10.30
2022-10-17T07:05:57.598Z,10.10
2022-10-17T07:08:24.641Z,10.20
2022-10-17T07:10:51.595Z,10.30
2022-10-17T07:13:18.740Z,10.30
2022-10-17T07:15:45.703Z,10.30
2022-10-17T07:18:12.693Z,10.30
2022-10-17T07:20:40.450Z,10.40
2022-10-17T07:23:07.356Z,10.50
2022-10-17T07:25:36.497Z,10.50
2022-10-17T07:28:06.122Z,11.00
2022-10-17T07:30:33.221Z,10.60
2022-10-17T07:33:00.103Z,10.60
2022-10-17T07:35:26.976Z,10.70
2022-10-17T07:37:54.826Z,11.00
2022-10-17T07:40:21.790Z,10.90
2022-10-17T07:42:48.847Z,11.10
2022-10-17T07:45:16.699Z,11.10
2022-10-17T07:47:43.599Z,11.40
2022-10-17T07:50:10.565Z,11.30
2022-10-17T07:52:37.949Z,11.40
2022-10-17T08:01:04.364Z,11.70
2022-10-17T08:03:36.978Z,11.90
2022-10-17T08:06:07.998Z,12.10
2022-10-17T08:08:35.539Z,12.10
2022-10-17T08:13:55.359Z,12.80
2022-10-17T08:23:02.601Z,12.70
2022-10-17T08:25:30.726Z,12.60
2022-10-17T08:27:58.125Z,12.80
2022-10-17T08:30:25.025Z,13.00
2022-10-17T08:32:51.916Z,13.20
2022-10-17T08:35:18.911Z,13.30
2022-10-17T08:37:45.972Z,13.50
2022-10-17T08:40:23.114Z,13.50
2022-10-17T08:43:08.784Z,13.90
2022-10-17T08:45:49.806Z,13.90
2022-10-17T08:48:18.002Z,14.70
2022-10-17T08:51:02.145Z,14.20
2022-10-17T08:53:34.735Z,14.20
2022-10-17T08:56:03.915Z,14.40
2022-10-17T08:58:32.950Z,14.50
2022-10-17T09:01:13.794Z,14.70
2022-10-17T09:03:56.929Z,14.70
2022-10-17T09:06:30.470Z,14.80
2022-10-17T09:09:00.269Z,15.00
2022-10-17T09:11:48.971Z,15.10
2022-10-17T09:14:27.650Z,15.10
2022-10-17T09:17:06.651Z,15.20
2022-10-17T09:19:40.872Z,15.40
2022-10-17T09:22:21.163Z,15.60
2022-10-17T09:24:51.125Z,15.70
2022-10-17T09:27:21.014Z,15.70
2022-10-17T09:29:49.150Z,15.80
2022-10-17T09:32:18.058Z,15.90
2022-10-17T09:34:45.004Z,16.00
2022-10-17T09:37:13.624Z,16.20
2022-10-17T09:39:41.918Z,16.40
2022-10-17T09:42:10.397Z,16.40
2022-10-17T09:44:57.594Z,16.50
2022-10-17T09:47:24.582Z,16.60
2022-10-17T09:49:51.552Z,16.70
2022-10-17T09:52:33.648Z,16.80
2022-10-17T09:55:00.515Z,16.90
2022-10-17T09:57:27.412Z,17.00
2022-10-17T10:00:01.475Z,17.00
2022-10-17T10:02:29.586Z,17.00
2022-10-17T10:05:05.154Z,17.20
2022-10-17T10:07:37.495Z,17.30
2022-10-17T10:10:05.114Z,17.30
2022-10-17T10:12:41.098Z,17.40
2022-10-17T10:15:27.753Z,17.40
2022-10-17T10:17:54.597Z,17.50
2022-10-17T10:20:26.465Z,17.60
2022-10-17T10:23:11.643Z,17.70
2022-10-17T10:25:38.568Z,17.80
2022-10-17T10:28:10.092Z,17.90
2022-10-17T10:30:39.181Z,18.00
2022-10-17T10:33:10.560Z,18.10
2022-10-17T10:35:37.505Z,18.10
2022-10-17T10:38:08.830Z,18.30
2022-10-17T10:40:37.632Z,18.30
2022-10-17T10:43:05.701Z,18.30
2022-10-17T10:45:54.113Z,18.40
2022-10-17T10:48:24.971Z,18.40
2022-10-17T10:51:13.515Z,18.50
2022-10-17T10:53:55.534Z,18.50
2022-10-17T10:56:22.401Z,18.50
2022-10-17T10:58:54.015Z,18.50
2022-10-17T11:01:20.995Z,18.50
2022-10-17T11:03:48.010Z,18.60
2022-10-17T11:06:17.347Z,18.80
2022-10-17T11:09:04.483Z,18.80
2022-10-17T11:11:32.754Z,18.90
2022-10-17T11:14:02.869Z,19.10
2022-10-17T11:16:33.019Z,19.20
2022-10-17T11:19:13.882Z,19.30
2022-10-17T11:21:53.725Z,19.40
2022-10-17T11:24:39.369Z,19.30
2022-10-17T11:27:07.262Z,19.40
2022-10-17T11:29:35.373Z,19.40
2022-10-17T11:32:03.653Z,19.40
2022-10-17T11:34:31.794Z,19.60
2022-10-17T11:37:01.505Z,19.90
2022-10-17T11:39:34.349Z,20.00
2022-10-17T11:42:07.150Z,20.00
2022-10-17T11:44:38.010Z,20.20
2022-10-17T11:47:14.411Z,20.20
2022-10-17T11:49:43.316Z,20.30
2022-10-17T11:52:10.710Z,20.40
2022-10-17T11:54:51.126Z,20.50
2022-10-17T11:57:34.994Z,20.50
2022-10-17T12:00:28.281Z,20.60
2022-10-17T12:03:01.645Z,20.50
2022-10-17T12:05:34.518Z,20.60
2022-10-17T12:08:03.703Z,20.90
2022-10-17T12:10:49.287Z,21.10
2022-10-17T12:13:28.407Z,21.40
2022-10-17T12:15:59.021Z,21.70
2022-10-17T12:18:27.426Z,21.80
2022-10-17T12:20:58.070Z,21.90
2022-10-17T12:23:31.353Z,22.30
2022-10-17T12:26:04.671Z,22.50
2022-10-17T12:28:38.340Z,22.80
2022-10-17T12:31:10.196Z,22.90
2022-10-17T12:33:40.201Z,22.50
2022-10-17T12:36:13.594Z,22.80
2022-10-17T12:38:40.465Z,23.00
2022-10-17T12:41:07.322Z,23.00
2022-10-17T12:43:36.155Z,23.20
2022-10-17T12:46:07.577Z,23.70
2022-10-17T12:48:34.444Z,24.10
2022-10-17T12:51:17.523Z,24.40
2022-10-17T12:53:48.192Z,24.40
2022-10-17T12:56:18.809Z,24.20
2022-10-17T12:58:46.455Z,23.90
2022-10-17T13:01:24.508Z,24.00
2022-10-17T13:03:52.818Z,24.40
2022-10-17T13:06:27.372Z,24.40
2022-10-17T13:09:05.661Z,24.70
2022-10-17T13:11:33.464Z,25.30
2022-10-17T13:14:00.978Z,25.40
2022-10-17T13:16:33.047Z,25.80
2022-10-17T13:19:00.587Z,25.90
2022-10-17T13:21:27.467Z,25.50
2022-10-17T13:23:54.703Z,25.20
2022-10-17T13:26:21.701Z,24.90
2022-10-17T13:29:04.121Z,24.10
2022-10-17T13:31:32.484Z,24.00
2022-10-17T13:34:00.447Z,24.30
2022-10-17T13:36:27.831Z,24.90
2022-10-17T13:38:54.838Z,25.10
2022-10-17T13:41:35.445Z,25.40
2022-10-17T13:44:03.796Z,25.30
2022-10-17T13:46:37.855Z,25.30
2022-10-17T13:49:29.613Z,25.00
2022-10-17T13:51:56.610Z,25.00
2022-10-17T13:54:42.873Z,25.00
2022-10-17T13:57:20.573Z,25.20
2022-10-17T13:59:50.838Z,25.10
2022-10-17T14:02:19.873Z,25.10
2022-10-17T14:08:09.974Z,24.70
2022-10-17T14:10:31.347Z,24.40
2022-10-17T14:12:58.491Z,24.00
2022-10-17T14:15:29.381Z,23.60
2022-10-17T14:18:07.507Z,23.40
2022-10-17T14:21:08.265Z,23.40
2022-10-17T14:23:32.671Z,23.30
2022-10-17T14:26:11.729Z,23.30
2022-10-17T14:28:39.044Z,23.20
2022-10-17T14:31:22.554Z,23.10
2022-10-17T14:33:50.981Z,23.20
2022-10-17T14:36:18.316Z,23.60
2022-10-17T14:38:46.178Z,23.50
2022-10-17T14:41:41.433Z,22.60
2022-10-17T14:44:04.831Z,24.00
2022-10-17T14:46:31.712Z,24.20
2022-10-17T14:49:05.905Z,24.30
2022-10-17T14:51:44.690Z,24.20
2022-10-17T14:54:25.284Z,24.10
2022-10-17T14:56:52.919Z,24.00
2022-10-17T14:59:51.656Z,23.20
2022-10-17T15:02:10.203Z,22.40
2022-10-17T15:04:37.089Z,21.90
2022-10-17T15:07:04.005Z,21.30
2022-10-17T15:09:31.374Z,20.90
2022-10-17T15:12:04.674Z,20.40
2022-10-17T15:14:31.854Z,19.90
2022-10-17T15:16:58.755Z,19.70
2022-10-17T15:19:25.591Z,19.60
2022-10-17T15:21:52.561Z,19.30
2022-10-17T15:24:19.389Z,19.00
2022-10-17T15:26:46.284Z,18.80
2022-10-17T15:29:16.405Z,18.30
2022-10-17T15:31:43.319Z,18.00
2022-10-17T15:34:14.535Z,17.80
2022-10-17T15:36:42.410Z,17.70
2022-10-17T15:39:09.598Z,17.60
2022-10-17T15:41:36.439Z,17.10
2022-10-17T15:44:03.328Z,16.80
2022-10-17T15:46:30.813Z,16.60
2022-10-17T15:48:57.907Z,16.40
2022-10-17T15:51:24.864Z,16.40
2022-10-17T15:53:51.749Z,16.30
2022-10-17T15:56:29.022Z,16.10
2022-10-17T15:58:56.060Z,15.90
2022-10-17T16:01:29.618Z,15.80
2022-10-17T16:03:56.795Z,16.00
2022-10-17T16:06:23.791Z,15.90
2022-10-17T16:08:50.715Z,15.70
2022-10-17T16:11:18.994Z,15.70
2022-10-17T16:13:48.653Z,15.30
2022-10-17T16:16:15.577Z,15.00
2022-10-17T16:18:42.438Z,15.00
2022-10-17T16:21:12.913Z,15.00
2022-10-17T16:23:40.023Z,15.00
2022-10-17T16:26:07.421Z,14.90
2022-10-17T16:28:34.488Z,14.80
2022-10-17T16:31:01.495Z,14.80
2022-10-17T16:33:28.869Z,14.80
2022-10-17T16:35:55.973Z,14.90
2022-10-17T16:38:22.947Z,14.80
2022-10-17T16:40:49.803Z,14.80
2022-10-17T16:43:16.686Z,14.80
2022-10-17T16:45:43.608Z,14.80
2022-10-17T16:48:10.627Z,14.70
2022-10-17T16:50:39.068Z,14.60
2022-10-17T16:53:05.988Z,14.60
2022-10-17T16:55:32.942Z,14.70
2022-10-17T16:58:00.438Z,14.60
2022-10-17T17:00:27.356Z,14.40
2022-10-17T17:02:54.562Z,14.40
2022-10-17T17:05:21.494Z,14.30
2022-10-17T17:07:48.531Z,14.30
2022-10-17T17:10:15.862Z,14.00
2022-10-17T17:32:13.749Z,14.00
2022-10-17T17:34:40.703Z,13.80
2022-10-17T17:37:08.001Z,13.80
2022-10-17T17:39:34.923Z,13.70
2022-10-17T17:42:02.015Z,13.60
2022-10-17T17:44:28.901Z,13.60
2022-10-17T17:46:55.934Z,13.50
2022-10-17T17:49:22.876Z,13.50
2022-10-17T17:51:49.738Z,13.50
2022-10-17T17:54:16.626Z,13.40
2022-10-17T17:56:43.789Z,13.40
2022-10-17T17:59:11.317Z,13.30
2022-10-17T18:01:39.406Z,13.30
2022-10-17T18:04:07.221Z,13.20
2022-10-17T18:06:34.254Z,13.10
2022-10-17T18:09:01.788Z,13.10
2022-10-17T18:11:28.765Z,13.00
2022-10-17T18:13:59.601Z,12.90
2022-10-17T18:16:26.912Z,12.90
2022-10-17T18:18:53.921Z,12.80
2022-10-17T18:21:20.772Z,12.80
2022-10-17T18:23:47.988Z,12.80
2022-10-17T18:26:14.872Z,12.70
2022-10-17T18:31:15.561Z,12.70
2022-10-17T18:33:44.626Z,12.70
2022-10-17T18:36:11.953Z,12.60
2022-10-17T18:38:38.837Z,12.40
2022-10-17T18:41:08.117Z,12.40
2022-10-17T18:43:35.590Z,12.30
2022-10-17T18:46:04.862Z,12.20
2022-10-17T18:48:31.879Z,12.30
2022-10-17T18:50:58.867Z,12.20
2022-10-17T18:53:25.837Z,12.20
2022-10-17T18:55:53.020Z,12.10
2022-10-17T18:58:21.419Z,12.10
2022-10-17T19:00:48.910Z,12.10
2022-10-17T19:03:15.959Z,12.10
2022-10-17T19:05:45.285Z,12.10
2022-10-17T19:08:13.361Z,12.00
2022-10-17T19:10:41.567Z,12.00
2022-10-17T19:13:09.265Z,11.90
2022-10-17T19:15:36.161Z,12.00
2022-10-17T19:18:03.314Z,11.90
2022-10-17T19:20:30.198Z,12.00
2022-10-17T19:22:57.086Z,11.90
2022-10-17T19:25:23.993Z,11.90
2022-10-17T19:27:51.057Z,11.90
2022-10-17T19:30:18.684Z,11.80
2022-10-17T19:32:45.700Z,11.70
2022-10-17T19:35:12.601Z,11.80
2022-10-17T19:37:39.539Z,11.70
2022-10-17T19:40:06.632Z,11.70
2022-10-17T19:42:35.170Z,11.60
2022-10-17T19:45:02.697Z,11.50
2022-10-17T19:47:29.814Z,11.60
2022-10-17T19:49:56.631Z,11.50
2022-10-17T19:52:23.436Z,11.40
2022-10-17T19:54:53.412Z,11.30
2022-10-17T19:57:20.243Z,11.20
2022-10-17T19:59:48.022Z,11.30
2022-10-17T20:02:16.223Z,11.20
2022-10-17T20:04:54.334Z,11.20
2022-10-17T20:07:27.007Z,11.20
2022-10-17T20:09:53.883Z,11.10
2022-10-17T20:12:20.857Z,11.10
2022-10-17T20:14:47.702Z,11.00
2022-10-17T20:17:14.542Z,11.10
2022-10-17T20:19:41.366Z,11.10
2022-10-17T20:22:08.209Z,11.10
2022-10-17T20:24:35.074Z,11.00
2022-10-17T20:27:02.205Z,11.00
2022-10-17T20:29:29.162Z,10.90
2022-10-17T20:31:56.855Z,10.90
2022-10-17T20:34:23.785Z,10.90
2022-10-17T20:36:50.721Z,10.90
2022-10-17T20:39:19.342Z,10.80
2022-10-17T20:41:46.336Z,10.80
2022-10-17T20:44:13.364Z,10.80
2022-10-17T20:46:45.236Z,10.70
2022-10-17T20:49:24.682Z,10.80
2022-10-17T20:51:51.691Z,10.80
2022-10-17T20:54:18.565Z,10.80
2022-10-17T20:56:45.428Z,10.80
2022-10-17T20:59:12.875Z,10.70
2022-10-17T21:01:39.930Z,10.70
2022-10-17T21:04:33.243Z,10.60
2022-10-17T21:06:53.843Z,10.60
2022-10-17T21:09:20.861Z,10.60
2022-10-17T21:11:48.611Z,10.60
2022-10-17T21:14:16.852Z,10.60
2022-10-17T21:16:43.830Z,10.70
2022-10-17T21:19:11.478Z,10.60
2022-10-17T21:21:38.844Z,10.50
2022-10-17T21:24:06.481Z,10.50
2022-10-17T21:26:34.095Z,10.50
2022-10-17T21:29:05.766Z,10.50
2022-10-17T21:31:36.560Z,10.60
2022-10-17T21:34:10.615Z,10.50
2022-10-17T21:36:37.666Z,10.50
2022-10-17T21:39:04.664Z,10.40
2022-10-17T21:41:31.874Z,10.50
2022-10-17T21:44:00.044Z,10.30
2022-10-17T21:46:26.975Z,10.40
2022-10-17T21:48:53.947Z,10.40
2022-10-17T21:51:21.546Z,10.30
2022-10-17T21:53:48.468Z,10.40
2022-10-17T21:56:16.162Z,10.40
2022-10-17T21:58:43.063Z,10.30
2022-10-17T22:01:13.967Z,10.20
2022-10-17T22:03:44.226Z,10.20
2022-10-17T22:09:01.276Z,10.10
2022-10-17T22:11:29.269Z,10.00
2022-10-17T22:14:00.086Z,10.00
2022-10-17T22:16:26.932Z,9.90
2022-10-17T22:19:00.520Z,9.90
2022-10-17T22:21:30.141Z,10.00
2022-10-17T22:24:00.753Z,10.00
2022-10-17T22:26:28.062Z,9.90
2022-10-17T22:28:55.325Z,9.80
2022-10-17T22:31:22.722Z,9.70
2022-10-17T22:33:49.579Z,9.80
2022-10-17T22:36:16.442Z,9.70
2022-10-17T22:38:43.275Z,9.70
2022-10-17T22:41:10.124Z,9.50
2022-10-17T22:43:36.978Z,9.50
2022-10-17T22:46:04.309Z,9.40
2022-10-17T22:48:31.130Z,9.50
2022-10-17T22:50:58.411Z,9.40
2022-10-17T22:53:27.086Z,9.50
2022-10-17T22:55:54.304Z,9.50
2022-10-17T22:58:21.695Z,9.40
2022-10-17T23:00:48.900Z,9.30
2022-10-17T23:03:15.846Z,9.20
2022-10-17T23:05:42.995Z,9.10
2022-10-17T23:08:09.870Z,9.20
2022-10-17T23:10:36.842Z,9.20
2022-10-17T23:13:03.899Z,9.10
2022-10-17T23:15:33.853Z,9.10
2022-10-17T23:18:00.859Z,9.20
2022-10-17T23:20:28.058Z,9.20
2022-10-17T23:22:54.955Z,9.30
2022-10-17T23:25:22.032Z,9.30
2022-10-17T23:27:48.918Z,9.30
2022-10-17T23:30:15.787Z,9.20
2022-10-17T23:32:42.816Z,9.20
2022-10-17T23:35:09.851Z,9.20
2022-10-17T23:37:36.810Z,9.20
2022-10-17T23:40:04.257Z,9.10
2022-10-17T23:42:31.209Z,9.10
2022-10-17T23:44:58.047Z,9.10
2022-10-17T23:47:24.897Z,8.90
2022-10-17T23:49:51.752Z,8.90
2022-10-17T23:52:18.646Z,8.80
2022-10-17T23:54:45.517Z,8.70
2022-10-17T23:57:12.391Z,8.70
2022-10-17T23:59:39.247Z,8.70
